createdAt,value
2018-07-22T00:00:03.664Z,0.00
2018-07-22T00:01:03.609Z,0.00
2018-07-22T00:02:56.597Z,0.00
2018-07-22T00:03:56.565Z,0.00
2018-07-22T00:05:49.606Z,0.00
2018-07-22T00:06:49.552Z,0.00
2018-07-22T00:08:42.766Z,0.00
2018-07-22T00:09:42.667Z,0.00
2018-07-22T00:11:35.677Z,0.00
2018-07-22T00:12:35.628Z,0.00
2018-07-22T00:14:28.618Z,0.00
2018-07-22T00:15:28.584Z,0.00
2018-07-22T00:17:21.423Z,0.00
2018-07-22T00:18:21.376Z,0.00
2018-07-22T00:20:14.367Z,0.00
2018-07-22T00:21:14.342Z,0.00
2018-07-22T00:23:07.358Z,0.00
2018-07-22T00:24:07.296Z,0.00
2018-07-22T00:26:00.112Z,0.00
2018-07-22T00:27:00.083Z,0.00
2018-07-22T00:28:53.148Z,0.00
2018-07-22T00:29:53.088Z,0.00
2018-07-22T00:31:45.914Z,0.00
2018-07-22T00:32:45.872Z,0.00
2018-07-22T00:34:38.874Z,0.00
2018-07-22T00:35:38.832Z,0.00
2018-07-22T00:37:32.668Z,0.00
2018-07-22T00:38:32.618Z,0.00
2018-07-22T00:40:25.637Z,0.00
2018-07-22T00:41:25.600Z,0.00
2018-07-22T00:43:18.608Z,0.00
2018-07-22T00:44:18.562Z,0.00
2018-07-22T00:46:11.733Z,0.00
2018-07-22T00:47:11.633Z,0.00
2018-07-22T00:49:04.605Z,0.00
2018-07-22T00:50:04.553Z,0.00
2018-07-22T00:51:57.569Z,0.00
2018-07-22T00:52:57.515Z,0.00
2018-07-22T00:54:50.405Z,0.00
2018-07-22T00:55:50.353Z,0.00
2018-07-22T00:57:43.257Z,0.00
2018-07-22T00:58:43.138Z,0.00
2018-07-22T01:00:36.127Z,0.00
2018-07-22T01:01:36.095Z,0.00
2018-07-22T01:03:29.118Z,0.00
2018-07-22T01:04:29.058Z,0.00
2018-07-22T01:06:22.070Z,0.00
2018-07-22T01:07:22.010Z,0.00
2018-07-22T01:09:15.034Z,0.00
2018-07-22T01:10:14.979Z,0.00
2018-07-22T01:12:07.978Z,0.00
2018-07-22T01:13:07.933Z,0.00
2018-07-22T01:15:00.783Z,0.00
2018-07-22T01:16:00.739Z,0.00
2018-07-22T01:17:53.722Z,0.00
2018-07-22T01:18:53.693Z,0.00
2018-07-22T01:20:46.730Z,0.00
2018-07-22T01:21:46.674Z,0.00
2018-07-22T01:23:39.858Z,0.00
2018-07-22T01:24:39.800Z,0.00
2018-07-22T01:26:32.768Z,0.00
2018-07-22T01:27:32.731Z,0.00
2018-07-22T01:29:25.561Z,0.00
2018-07-22T01:30:25.521Z,0.00
2018-07-22T01:32:18.356Z,0.00
2018-07-22T01:33:18.304Z,0.00
2018-07-22T01:35:11.176Z,0.00
2018-07-22T01:36:11.136Z,0.00
2018-07-22T01:38:04.426Z,0.00
2018-07-22T01:39:04.398Z,0.00
2018-07-22T01:40:57.694Z,0.00
2018-07-22T01:41:57.648Z,0.00
2018-07-22T01:43:50.643Z,0.00
2018-07-22T01:44:50.606Z,0.00
2018-07-22T01:46:43.739Z,0.00
2018-07-22T01:47:43.684Z,0.00
2018-07-22T01:49:36.694Z,0.00
2018-07-22T01:50:36.649Z,0.00
2018-07-22T01:52:29.663Z,0.00
2018-07-22T01:53:29.604Z,0.00
2018-07-22T01:55:22.814Z,0.00
2018-07-22T01:56:22.754Z,0.00
2018-07-22T01:58:15.752Z,0.00
2018-07-22T01:59:15.711Z,0.00
2018-07-22T02:01:08.885Z,0.00
2018-07-22T02:02:08.825Z,0.00
2018-07-22T02:04:01.838Z,0.00
2018-07-22T02:05:01.912Z,0.00
2018-07-22T02:06:54.592Z,0.00
2018-07-22T02:07:54.576Z,0.00
2018-07-22T02:09:47.716Z,0.00
2018-07-22T02:10:47.669Z,0.00
2018-07-22T02:12:40.676Z,0.00
2018-07-22T02:13:40.625Z,0.00
2018-07-22T02:15:33.965Z,0.00
2018-07-22T02:16:33.770Z,0.00
2018-07-22T02:18:26.611Z,0.00
2018-07-22T02:19:26.555Z,0.00
2018-07-22T02:21:19.402Z,0.00
2018-07-22T02:22:19.337Z,0.00
2018-07-22T02:24:12.336Z,0.00
2018-07-22T02:25:12.306Z,0.00
2018-07-22T02:27:05.230Z,0.00
2018-07-22T02:28:05.180Z,0.00
2018-07-22T02:29:58.191Z,0.00
2018-07-22T02:30:58.150Z,0.00
2018-07-22T02:32:51.145Z,0.00
2018-07-22T02:33:51.108Z,0.00
2018-07-22T02:35:44.267Z,0.00
2018-07-22T02:36:44.234Z,0.00
2018-07-22T02:38:37.224Z,0.00
2018-07-22T02:39:37.175Z,0.00
2018-07-22T02:41:30.424Z,0.00
2018-07-22T02:42:30.348Z,0.00
2018-07-22T02:44:23.176Z,0.00
2018-07-22T02:45:23.124Z,0.00
2018-07-22T02:47:16.114Z,0.00
2018-07-22T02:48:16.085Z,0.00
2018-07-22T02:50:09.348Z,0.00
2018-07-22T02:51:09.283Z,0.00
2018-07-22T02:53:02.129Z,0.00
2018-07-22T02:54:02.066Z,0.00
2018-07-22T02:55:55.058Z,0.00
2018-07-22T02:56:55.066Z,0.00
2018-07-22T02:58:48.148Z,0.00
2018-07-22T02:59:48.087Z,0.00
2018-07-22T03:01:40.914Z,0.00
2018-07-22T03:02:40.880Z,0.00
2018-07-22T03:04:33.737Z,0.00
2018-07-22T03:05:33.687Z,0.00
2018-07-22T03:07:26.672Z,0.00
2018-07-22T03:08:26.632Z,0.00
2018-07-22T03:10:19.583Z,0.00
2018-07-22T03:11:19.519Z,0.00
2018-07-22T03:13:12.544Z,0.00
2018-07-22T03:14:12.478Z,0.00
2018-07-22T03:16:05.481Z,4.00
2018-07-22T03:17:05.434Z,0.00
2018-07-22T03:18:58.273Z,4.00
2018-07-22T03:19:58.224Z,4.00
2018-07-22T03:21:51.144Z,4.00
2018-07-22T03:22:51.004Z,4.00
2018-07-22T03:24:44.062Z,8.00
2018-07-22T03:25:43.985Z,4.00
2018-07-22T03:27:36.994Z,8.00
2018-07-22T03:28:36.933Z,12.00
2018-07-22T03:30:29.851Z,12.00
2018-07-22T03:31:29.822Z,16.00
2018-07-22T03:33:22.815Z,16.00
2018-07-22T03:34:22.765Z,20.00
2018-07-22T03:36:15.748Z,28.00
2018-07-22T03:37:15.710Z,28.00
2018-07-22T03:39:08.541Z,32.00
2018-07-22T03:40:08.495Z,40.00
2018-07-22T03:42:01.311Z,44.00
2018-07-22T03:43:01.285Z,52.00
2018-07-22T03:44:54.289Z,60.00
2018-07-22T03:45:54.236Z,60.00
2018-07-22T03:47:47.231Z,68.00
2018-07-22T03:48:47.180Z,76.00
2018-07-22T03:50:40.390Z,84.00
2018-07-22T03:51:40.297Z,88.00
2018-07-22T03:53:33.132Z,100.00
2018-07-22T03:54:33.071Z,108.00
2018-07-22T03:56:26.087Z,120.00
2018-07-22T03:57:26.027Z,124.00
2018-07-22T03:59:19.265Z,132.00
2018-07-22T04:00:19.100Z,136.00
2018-07-22T04:02:11.947Z,148.00
2018-07-22T04:03:11.902Z,156.00
2018-07-22T04:05:04.913Z,168.00
2018-07-22T04:06:04.862Z,172.00
2018-07-22T04:07:58.057Z,188.00
2018-07-22T04:08:57.967Z,196.00
2018-07-22T04:10:50.982Z,212.00
2018-07-22T04:11:50.921Z,224.00
2018-07-22T04:13:43.947Z,244.00
2018-07-22T04:14:43.880Z,252.00
2018-07-22T04:16:36.775Z,280.00
2018-07-22T04:17:36.745Z,292.00
2018-07-22T04:19:29.757Z,324.00
2018-07-22T04:20:29.711Z,340.00
2018-07-22T04:22:22.533Z,372.00
2018-07-22T04:23:22.506Z,388.00
2018-07-22T04:25:15.676Z,420.00
2018-07-22T04:26:15.601Z,440.00
2018-07-22T04:28:08.426Z,472.00
2018-07-22T04:29:08.386Z,488.00
2018-07-22T04:31:01.407Z,520.00
2018-07-22T04:32:01.366Z,540.00
2018-07-22T04:33:54.603Z,572.00
2018-07-22T04:34:54.460Z,588.00
2018-07-22T04:36:47.461Z,616.00
2018-07-22T04:37:47.408Z,632.00
2018-07-22T04:39:40.400Z,660.00
2018-07-22T04:40:40.356Z,676.00
2018-07-22T04:42:33.551Z,708.00
2018-07-22T04:43:33.497Z,724.00
2018-07-22T04:45:26.478Z,748.00
2018-07-22T04:46:26.542Z,764.00
2018-07-22T04:48:19.788Z,796.00
2018-07-22T04:49:19.573Z,812.00
2018-07-22T04:51:12.575Z,840.00
2018-07-22T04:52:12.527Z,856.00
2018-07-22T04:54:05.511Z,880.00
2018-07-22T04:55:05.473Z,896.00
2018-07-22T04:56:58.422Z,920.00
2018-07-22T04:57:58.368Z,936.00
2018-07-22T04:59:51.371Z,964.00
2018-07-22T05:00:51.332Z,980.00
2018-07-22T05:02:44.161Z,996.00
2018-07-22T05:03:44.107Z,1012.00
2018-07-22T05:05:37.111Z,1028.00
2018-07-22T05:06:37.076Z,1040.00
2018-07-22T05:08:30.122Z,1068.00
2018-07-22T05:09:30.077Z,1076.00
2018-07-22T05:11:22.917Z,1108.00
2018-07-22T05:12:22.848Z,1128.00
2018-07-22T05:14:15.847Z,1180.00
2018-07-22T05:15:15.809Z,1220.00
2018-07-22T05:17:08.764Z,1296.00
2018-07-22T05:18:08.725Z,1328.00
2018-07-22T05:20:01.730Z,1376.00
2018-07-22T05:21:01.665Z,1388.00
2018-07-22T05:22:54.673Z,1392.00
2018-07-22T05:23:54.619Z,1392.00
2018-07-22T05:25:47.775Z,1408.00
2018-07-22T05:26:47.703Z,1420.00
2018-07-22T05:28:40.732Z,1452.00
2018-07-22T05:29:40.654Z,1472.00
2018-07-22T05:31:33.480Z,1520.00
2018-07-22T05:32:33.489Z,1548.00
2018-07-22T05:34:26.599Z,1620.00
2018-07-22T05:35:26.540Z,1660.00
2018-07-22T05:37:19.542Z,1740.00
2018-07-22T05:38:19.495Z,1788.00
2018-07-22T05:40:12.498Z,1896.00
2018-07-22T05:41:12.450Z,1944.00
2018-07-22T05:43:05.324Z,2040.00
2018-07-22T05:44:05.258Z,2092.00
2018-07-22T05:45:58.253Z,2152.00
2018-07-22T05:46:58.234Z,2168.00
2018-07-22T05:48:51.245Z,2184.00
2018-07-22T05:49:51.204Z,2184.00
2018-07-22T05:51:44.384Z,2172.00
2018-07-22T05:52:44.289Z,2172.00
2018-07-22T05:54:37.139Z,2192.00
2018-07-22T05:55:37.079Z,2204.00
2018-07-22T05:57:30.075Z,2236.00
2018-07-22T05:58:30.031Z,2252.00
2018-07-22T06:00:23.194Z,2284.00
2018-07-22T06:01:23.161Z,2296.00
2018-07-22T06:03:16.188Z,2324.00
2018-07-22T06:04:16.104Z,2332.00
2018-07-22T06:06:09.095Z,2328.00
2018-07-22T06:07:09.044Z,2332.00
2018-07-22T06:09:01.887Z,2320.00
2018-07-22T06:10:01.868Z,2316.00
2018-07-22T06:11:54.815Z,2312.00
2018-07-22T06:12:54.641Z,2296.00
2018-07-22T06:14:47.621Z,2272.00
2018-07-22T06:15:47.602Z,2248.00
2018-07-22T06:17:40.598Z,2224.00
2018-07-22T06:18:40.549Z,2208.00
2018-07-22T06:20:33.625Z,2172.00
2018-07-22T06:21:33.527Z,2148.00
2018-07-22T06:23:26.523Z,2076.00
2018-07-22T06:24:26.586Z,2036.00
2018-07-22T06:26:19.628Z,1976.00
2018-07-22T06:27:19.589Z,1932.00
2018-07-22T06:29:12.416Z,1872.00
2018-07-22T06:30:12.392Z,1848.00
2018-07-22T06:32:05.400Z,1832.00
2018-07-22T06:33:05.348Z,1828.00
2018-07-22T06:34:58.489Z,1812.00
2018-07-22T06:35:58.458Z,1816.00
2018-07-22T06:37:51.464Z,1868.00
2018-07-22T06:38:51.410Z,1908.00
2018-07-22T06:40:44.841Z,1960.00
2018-07-22T06:41:44.696Z,1960.00
2018-07-22T06:43:37.682Z,1904.00
2018-07-22T06:44:37.633Z,1888.00
2018-07-22T06:46:30.635Z,1900.00
2018-07-22T06:47:30.593Z,1916.00
2018-07-22T06:49:23.506Z,1964.00
2018-07-22T06:50:23.453Z,2004.00
2018-07-22T06:52:16.372Z,2092.00
2018-07-22T06:53:16.240Z,2128.00
2018-07-22T06:55:09.246Z,2192.00
2018-07-22T06:56:09.210Z,2212.00
2018-07-22T06:58:02.226Z,2240.00
2018-07-22T06:59:02.216Z,2272.00
2018-07-22T07:00:55.066Z,2320.00
2018-07-22T07:01:54.969Z,2340.00
2018-07-22T07:03:47.975Z,2372.00
2018-07-22T07:04:47.926Z,2380.00
2018-07-22T07:06:40.913Z,2508.00
2018-07-22T07:07:40.895Z,2564.00
2018-07-22T07:09:34.082Z,2712.00
2018-07-22T07:10:33.989Z,2804.00
2018-07-22T07:12:26.986Z,2880.00
2018-07-22T07:13:26.942Z,2896.00
2018-07-22T07:15:19.932Z,2936.00
2018-07-22T07:16:19.894Z,2972.00
2018-07-22T07:18:12.727Z,3092.00
2018-07-22T07:19:12.698Z,3144.00
2018-07-22T07:21:05.673Z,3192.00
2018-07-22T07:22:05.636Z,3224.00
2018-07-22T07:23:58.479Z,3320.00
2018-07-22T07:24:58.417Z,3356.00
2018-07-22T07:26:51.418Z,3388.00
2018-07-22T07:27:51.379Z,3368.00
2018-07-22T07:29:44.234Z,3304.00
2018-07-22T07:30:44.190Z,3260.00
2018-07-22T07:32:37.167Z,3252.00
2018-07-22T07:33:37.218Z,3288.00
2018-07-22T07:35:29.954Z,3408.00
2018-07-22T07:36:29.922Z,3476.00
2018-07-22T07:38:22.902Z,3524.00
2018-07-22T07:39:22.873Z,3528.00
2018-07-22T07:41:15.899Z,3516.00
2018-07-22T07:42:15.714Z,3488.00
2018-07-22T07:44:08.852Z,3392.00
2018-07-22T07:45:08.778Z,3360.00
2018-07-22T07:47:01.794Z,3360.00
2018-07-22T07:48:01.729Z,3340.00
2018-07-22T07:49:54.589Z,3540.00
2018-07-22T07:50:54.533Z,3640.00
2018-07-22T07:52:47.500Z,3796.00
2018-07-22T07:53:47.473Z,3844.00
2018-07-22T07:55:40.594Z,3856.00
2018-07-22T07:56:40.533Z,3816.00
2018-07-22T07:58:33.339Z,3656.00
2018-07-22T07:59:33.309Z,3660.00
2018-07-22T08:01:26.300Z,3740.00
2018-07-22T08:02:26.262Z,3796.00
2018-07-22T08:04:19.254Z,3836.00
2018-07-22T08:05:19.250Z,3792.00
2018-07-22T08:07:12.437Z,3944.00
2018-07-22T08:08:12.320Z,4020.00
2018-07-22T08:10:05.339Z,4132.00
2018-07-22T08:11:05.276Z,4236.00
2018-07-22T08:12:58.245Z,4356.00
2018-07-22T08:13:58.210Z,4408.00
2018-07-22T08:15:51.084Z,4408.00
2018-07-22T08:16:51.039Z,4420.00
2018-07-22T08:18:44.022Z,4484.00
2018-07-22T08:19:44.006Z,4508.00
2018-07-22T08:21:37.038Z,4536.00
2018-07-22T08:22:36.948Z,4548.00
2018-07-22T08:24:30.060Z,4592.00
2018-07-22T08:25:30.040Z,4584.00
2018-07-22T08:27:23.057Z,4652.00
2018-07-22T08:28:23.005Z,4688.00
2018-07-22T08:30:16.009Z,4760.00
2018-07-22T08:31:15.969Z,4752.00
2018-07-22T08:33:08.851Z,4940.00
2018-07-22T08:34:08.830Z,5068.00
2018-07-22T08:36:01.811Z,5300.00
2018-07-22T08:37:01.769Z,5396.00
2018-07-22T08:38:54.600Z,5404.00
2018-07-22T08:39:54.551Z,5408.00
2018-07-22T08:41:47.662Z,5380.00
2018-07-22T08:42:47.633Z,5404.00
2018-07-22T08:44:40.632Z,5408.00
2018-07-22T08:45:40.584Z,5324.00
2018-07-22T08:47:33.594Z,5400.00
2018-07-22T08:48:33.525Z,5492.00
2018-07-22T08:50:26.641Z,5580.00
2018-07-22T08:51:26.607Z,5632.00
2018-07-22T08:53:19.640Z,5712.00
2018-07-22T08:54:19.574Z,5760.00
2018-07-22T08:56:12.558Z,5528.00
2018-07-22T08:57:12.541Z,5576.00
2018-07-22T08:59:05.484Z,5780.00
2018-07-22T09:00:05.337Z,5824.00
2018-07-22T09:01:58.315Z,5824.00
2018-07-22T09:02:58.276Z,5856.00
2018-07-22T09:04:51.286Z,5996.00
2018-07-22T09:05:51.251Z,5920.00
2018-07-22T09:07:44.555Z,5856.00
2018-07-22T09:08:44.538Z,5984.00
2018-07-22T09:10:37.535Z,6256.00
2018-07-22T09:11:37.540Z,6240.00
2018-07-22T09:13:30.662Z,6472.00
2018-07-22T09:14:30.602Z,6616.00
2018-07-22T09:16:23.578Z,6580.00
2018-07-22T09:17:23.549Z,6648.00
2018-07-22T09:19:16.567Z,6448.00
2018-07-22T09:20:16.513Z,6236.00
2018-07-22T09:22:09.348Z,6516.00
2018-07-22T09:23:09.314Z,6876.00
2018-07-22T09:25:02.320Z,7016.00
2018-07-22T09:26:02.268Z,6948.00
2018-07-22T09:27:55.265Z,6856.00
2018-07-22T09:28:55.218Z,6720.00
2018-07-22T09:30:48.452Z,6588.00
2018-07-22T09:31:48.377Z,6732.00
2018-07-22T09:33:41.372Z,6928.00
2018-07-22T09:34:41.341Z,7064.00
2018-07-22T09:36:34.603Z,7084.00
2018-07-22T09:37:34.459Z,7052.00
2018-07-22T09:39:27.452Z,7020.00
2018-07-22T09:40:27.450Z,7000.00
2018-07-22T09:42:20.279Z,6988.00
2018-07-22T09:43:20.278Z,6972.00
2018-07-22T09:45:13.374Z,6984.00
2018-07-22T09:46:13.318Z,6992.00
2018-07-22T09:48:06.373Z,7024.00
2018-07-22T09:49:06.292Z,7088.00
2018-07-22T09:50:59.293Z,7048.00
2018-07-22T09:51:59.257Z,7052.00
2018-07-22T09:53:52.208Z,7092.00
2018-07-22T09:54:52.099Z,7092.00
2018-07-22T09:56:44.944Z,7180.00
2018-07-22T09:57:44.914Z,7232.00
2018-07-22T09:59:37.878Z,7324.00
2018-07-22T10:00:37.855Z,7480.00
2018-07-22T10:02:30.889Z,22816.00
2018-07-22T10:03:30.836Z,52160.00
2018-07-22T10:05:23.889Z,55616.00
2018-07-22T10:06:23.815Z,55232.00
2018-07-22T10:08:16.833Z,54656.00
2018-07-22T10:09:16.914Z,55552.00
2018-07-22T10:11:10.061Z,54784.00
2018-07-22T10:12:09.943Z,55296.00
2018-07-22T10:14:02.936Z,55200.00
2018-07-22T10:15:02.928Z,52864.00
2018-07-22T10:16:55.939Z,46144.00
2018-07-22T10:17:55.884Z,43136.00
2018-07-22T10:19:48.890Z,36832.00
2018-07-22T10:20:48.865Z,32224.00
2018-07-22T10:22:41.937Z,30208.00
2018-07-22T10:23:41.905Z,28672.00
2018-07-22T10:25:34.739Z,26912.00
2018-07-22T10:26:34.710Z,25920.00
2018-07-22T10:28:27.779Z,23648.00
2018-07-22T10:29:27.731Z,23072.00
2018-07-22T10:31:20.571Z,22336.00
2018-07-22T10:32:20.539Z,21504.00
2018-07-22T10:34:13.590Z,20576.00
2018-07-22T10:35:13.542Z,18848.00
2018-07-22T10:37:06.649Z,18624.00
2018-07-22T10:38:06.600Z,18688.00
2018-07-22T10:39:59.665Z,18720.00
2018-07-22T10:40:59.661Z,17600.00
2018-07-22T10:42:52.854Z,18272.00
2018-07-22T10:43:52.769Z,17600.00
2018-07-22T10:45:45.784Z,17792.00
2018-07-22T10:46:45.756Z,18016.00
2018-07-22T10:48:38.939Z,17728.00
2018-07-22T10:49:38.879Z,15120.00
2018-07-22T10:51:31.906Z,16960.00
2018-07-22T10:52:31.872Z,16448.00
2018-07-22T10:54:24.936Z,16704.00
2018-07-22T10:55:24.862Z,16800.00
2018-07-22T10:57:17.714Z,16448.00
2018-07-22T10:58:17.704Z,16576.00
2018-07-22T11:00:10.943Z,16100.00
2018-07-22T11:01:10.917Z,16352.00
2018-07-22T11:03:03.959Z,16288.00
2018-07-22T11:04:03.914Z,15968.00
2018-07-22T11:05:56.947Z,15836.00
2018-07-22T11:06:56.918Z,15968.00
2018-07-22T11:08:49.942Z,15968.00
2018-07-22T11:09:49.897Z,16320.00
2018-07-22T11:11:42.812Z,15844.00
2018-07-22T11:12:42.790Z,15600.00
2018-07-22T11:14:36.203Z,15444.00
2018-07-22T11:15:36.112Z,15424.00
2018-07-22T11:17:29.020Z,15352.00
2018-07-22T11:18:28.932Z,15432.00
2018-07-22T11:20:22.008Z,15480.00
2018-07-22T11:21:22.032Z,15488.00
2018-07-22T11:23:15.002Z,15432.00
2018-07-22T11:24:14.966Z,15320.00
2018-07-22T11:26:07.874Z,15496.00
2018-07-22T11:27:07.826Z,15336.00
2018-07-22T11:29:00.750Z,15056.00
2018-07-22T11:30:00.647Z,14944.00
2018-07-22T11:31:53.523Z,15048.00
2018-07-22T11:32:53.492Z,15068.00
2018-07-22T11:34:46.329Z,14884.00
2018-07-22T11:35:46.304Z,14644.00
2018-07-22T11:37:39.480Z,14828.00
2018-07-22T11:38:39.465Z,14804.00
2018-07-22T11:40:32.481Z,14460.00
2018-07-22T11:41:32.457Z,14284.00
2018-07-22T11:43:25.299Z,14440.00
2018-07-22T11:44:25.281Z,14396.00
2018-07-22T11:46:18.141Z,14176.00
2018-07-22T11:47:18.107Z,14200.00
2018-07-22T11:49:11.117Z,14100.00
2018-07-22T11:50:11.095Z,13824.00
2018-07-22T11:52:04.452Z,14204.00
2018-07-22T11:53:04.421Z,14368.00
2018-07-22T11:54:57.442Z,14088.00
2018-07-22T11:55:57.412Z,14324.00
2018-07-22T11:57:50.440Z,14200.00
2018-07-22T11:58:50.402Z,14300.00
2018-07-22T12:00:43.518Z,14416.00
2018-07-22T12:01:43.483Z,14040.00
2018-07-22T12:03:36.343Z,13636.00
2018-07-22T12:04:36.331Z,13524.00
2018-07-22T12:06:29.351Z,13632.00
2018-07-22T12:07:29.319Z,13648.00
2018-07-22T12:09:22.500Z,13656.00
2018-07-22T12:10:22.475Z,13676.00
2018-07-22T12:12:15.542Z,13516.00
2018-07-22T12:13:15.480Z,13520.00
2018-07-22T12:15:08.328Z,13488.00
2018-07-22T12:16:08.334Z,13664.00
2018-07-22T12:18:01.194Z,14104.00
2018-07-22T12:19:01.142Z,13960.00
2018-07-22T12:20:53.979Z,13952.00
2018-07-22T12:21:53.962Z,13508.00
2018-07-22T12:23:46.838Z,13184.00
2018-07-22T12:24:46.790Z,13876.00
2018-07-22T12:26:40.052Z,14000.00
2018-07-22T12:27:39.937Z,13548.00
2018-07-22T12:29:32.958Z,14108.00
2018-07-22T12:30:32.939Z,13904.00
2018-07-22T12:32:25.807Z,13976.00
2018-07-22T12:33:25.774Z,13856.00
2018-07-22T12:35:18.978Z,14180.00
2018-07-22T12:36:18.977Z,13780.00
2018-07-22T12:38:11.867Z,13624.00
2018-07-22T12:39:11.786Z,13420.00
2018-07-22T12:41:04.622Z,13048.00
2018-07-22T12:42:04.615Z,13288.00
2018-07-22T12:43:57.809Z,12804.00
2018-07-22T12:44:57.755Z,11824.00
2018-07-22T12:46:50.617Z,7152.00
2018-07-22T12:47:50.572Z,9260.00
2018-07-22T12:49:43.570Z,12820.00
2018-07-22T12:50:43.549Z,12832.00
2018-07-22T12:52:36.422Z,12708.00
2018-07-22T12:53:36.372Z,12468.00
2018-07-22T12:55:29.238Z,12764.00
2018-07-22T12:56:29.209Z,12540.00
2018-07-22T12:58:22.233Z,12296.00
2018-07-22T12:59:22.195Z,12616.00
2018-07-22T13:01:15.049Z,12560.00
2018-07-22T13:02:15.046Z,12532.00
2018-07-22T13:04:08.164Z,9888.00
2018-07-22T13:05:08.122Z,5524.00
2018-07-22T13:07:01.145Z,5588.00
2018-07-22T13:08:01.122Z,12172.00
2018-07-22T13:09:53.959Z,12364.00
2018-07-22T13:10:53.936Z,10880.00
2018-07-22T13:12:46.803Z,11936.00
2018-07-22T13:13:46.767Z,11728.00
2018-07-22T13:15:39.641Z,11872.00
2018-07-22T13:16:39.601Z,11488.00
2018-07-22T13:18:32.456Z,11056.00
2018-07-22T13:19:32.409Z,11184.00
2018-07-22T13:21:25.427Z,11168.00
2018-07-22T13:22:25.402Z,10132.00
2018-07-22T13:24:18.291Z,6244.00
2018-07-22T13:25:18.241Z,11444.00
2018-07-22T13:27:11.250Z,11892.00
2018-07-22T13:28:11.235Z,11984.00
2018-07-22T13:30:04.599Z,12020.00
2018-07-22T13:31:04.556Z,12084.00
2018-07-22T13:32:57.609Z,11556.00
2018-07-22T13:33:57.590Z,11080.00
2018-07-22T13:35:50.825Z,4840.00
2018-07-22T13:36:50.732Z,5808.00
2018-07-22T13:38:43.726Z,7176.00
2018-07-22T13:39:43.721Z,4204.00
2018-07-22T13:41:36.737Z,8300.00
2018-07-22T13:42:36.714Z,10100.00
2018-07-22T13:44:29.793Z,10360.00
2018-07-22T13:45:29.864Z,10344.00
2018-07-22T13:47:22.601Z,10236.00
2018-07-22T13:48:22.589Z,10388.00
2018-07-22T13:50:15.625Z,10436.00
2018-07-22T13:51:15.632Z,10480.00
2018-07-22T13:53:08.426Z,9664.00
2018-07-22T13:54:08.412Z,9944.00
2018-07-22T13:56:01.441Z,9820.00
2018-07-22T13:57:01.401Z,9368.00
2018-07-22T13:58:54.416Z,9816.00
2018-07-22T13:59:54.383Z,9756.00
2018-07-22T14:01:47.283Z,9636.00
2018-07-22T14:02:47.247Z,9420.00
2018-07-22T14:04:40.303Z,9336.00
2018-07-22T14:05:40.216Z,9188.00
2018-07-22T14:07:33.241Z,9456.00
2018-07-22T14:08:33.236Z,9400.00
2018-07-22T14:10:26.362Z,9416.00
2018-07-22T14:11:26.308Z,9488.00
2018-07-22T14:13:19.337Z,9292.00
2018-07-22T14:14:19.403Z,9192.00
2018-07-22T14:16:12.514Z,9004.00
2018-07-22T14:17:12.449Z,8900.00
2018-07-22T14:19:05.534Z,8264.00
2018-07-22T14:20:05.495Z,8516.00
2018-07-22T14:21:58.338Z,8708.00
2018-07-22T14:22:58.294Z,8704.00
2018-07-22T14:24:51.187Z,3524.00
2018-07-22T14:25:51.169Z,3480.00
2018-07-22T14:27:44.289Z,4280.00
2018-07-22T14:28:44.192Z,6124.00
2018-07-22T14:30:37.226Z,8456.00
2018-07-22T14:31:37.176Z,8656.00
2018-07-22T14:33:30.261Z,8540.00
2018-07-22T14:34:30.259Z,4344.00
2018-07-22T14:36:23.277Z,3656.00
2018-07-22T14:37:23.317Z,4736.00
2018-07-22T14:39:16.454Z,3492.00
2018-07-22T14:40:16.381Z,8408.00
2018-07-22T14:42:09.244Z,8204.00
2018-07-22T14:43:09.186Z,5212.00
2018-07-22T14:45:02.203Z,3416.00
2018-07-22T14:46:02.167Z,3456.00
2018-07-22T14:47:55.327Z,4336.00
2018-07-22T14:48:55.262Z,8620.00
2018-07-22T14:50:48.314Z,8328.00
2018-07-22T14:51:48.293Z,8820.00
2018-07-22T14:53:41.628Z,4516.00
2018-07-22T14:54:41.409Z,4368.00
2018-07-22T14:56:34.458Z,4112.00
2018-07-22T14:57:34.439Z,3944.00
2018-07-22T14:59:27.450Z,3684.00
2018-07-22T15:00:27.413Z,3548.00
2018-07-22T15:02:20.272Z,3408.00
2018-07-22T15:03:20.223Z,6560.00
2018-07-22T15:05:13.238Z,3720.00
2018-07-22T15:06:13.199Z,3672.00
2018-07-22T15:08:06.194Z,6248.00
2018-07-22T15:09:06.170Z,7428.00
2018-07-22T15:10:59.361Z,6804.00
2018-07-22T15:11:59.325Z,7756.00
2018-07-22T15:13:52.223Z,5704.00
2018-07-22T15:14:52.129Z,5384.00
2018-07-22T15:16:45.145Z,3760.00
2018-07-22T15:17:45.115Z,3508.00
2018-07-22T15:19:38.141Z,3608.00
2018-07-22T15:20:38.098Z,5236.00
2018-07-22T15:22:30.945Z,7720.00
2018-07-22T15:23:30.905Z,7468.00
2018-07-22T15:25:23.929Z,6052.00
2018-07-22T15:26:23.880Z,6380.00
2018-07-22T15:28:16.750Z,7176.00
2018-07-22T15:29:16.758Z,7932.00
2018-07-22T15:31:09.748Z,8276.00
2018-07-22T15:32:09.702Z,8296.00
2018-07-22T15:34:02.752Z,8280.00
2018-07-22T15:35:02.721Z,8280.00
2018-07-22T15:36:55.846Z,8164.00
2018-07-22T15:37:55.837Z,7788.00
2018-07-22T15:39:48.835Z,7180.00
2018-07-22T15:40:48.802Z,6840.00
2018-07-22T15:42:41.955Z,7244.00
2018-07-22T15:43:41.929Z,7360.00
2018-07-22T15:45:34.952Z,7464.00
2018-07-22T15:46:34.911Z,7264.00
2018-07-22T15:48:27.930Z,7152.00
2018-07-22T15:49:27.966Z,7104.00
2018-07-22T15:51:20.901Z,7128.00
2018-07-22T15:52:20.770Z,7244.00
2018-07-22T15:54:13.760Z,7144.00
2018-07-22T15:55:13.903Z,7068.00
2018-07-22T15:57:06.776Z,7136.00
2018-07-22T15:58:06.726Z,7172.00
2018-07-22T15:59:59.826Z,7132.00
2018-07-22T16:00:59.795Z,7048.00
2018-07-22T16:02:52.810Z,6808.00
2018-07-22T16:03:52.758Z,6860.00
2018-07-22T16:05:46.022Z,6612.00
2018-07-22T16:06:45.882Z,5136.00
2018-07-22T16:08:38.890Z,3064.00
2018-07-22T16:09:38.882Z,3136.00
2018-07-22T16:11:31.906Z,6228.00
2018-07-22T16:12:31.851Z,6100.00
2018-07-22T16:14:24.826Z,6036.00
2018-07-22T16:15:24.689Z,6044.00
2018-07-22T16:17:17.700Z,5908.00
2018-07-22T16:18:17.653Z,6108.00
2018-07-22T16:20:10.982Z,3412.00
2018-07-22T16:21:10.956Z,4996.00
2018-07-22T16:23:04.026Z,2460.00
2018-07-22T16:24:03.948Z,2476.00
2018-07-22T16:25:56.770Z,2428.00
2018-07-22T16:26:56.749Z,2480.00
2018-07-22T16:28:49.979Z,2332.00
2018-07-22T16:29:49.879Z,2372.00
2018-07-22T16:31:42.707Z,2340.00
2018-07-22T16:32:42.689Z,2840.00
2018-07-22T16:34:35.735Z,2272.00
2018-07-22T16:35:35.706Z,2248.00
2018-07-22T16:37:29.069Z,2180.00
2018-07-22T16:38:28.998Z,4220.00
2018-07-22T16:40:21.985Z,1904.00
2018-07-22T16:41:21.970Z,1808.00
2018-07-22T16:43:14.851Z,1776.00
2018-07-22T16:44:14.785Z,1772.00
2018-07-22T16:46:07.642Z,1728.00
2018-07-22T16:47:07.590Z,1652.00
2018-07-22T16:49:00.451Z,1544.00
2018-07-22T16:50:00.400Z,1492.00
2018-07-22T16:51:53.428Z,1412.00
2018-07-22T16:52:53.376Z,1412.00
2018-07-22T16:54:46.208Z,1452.00
2018-07-22T16:55:46.163Z,1440.00
2018-07-22T16:57:39.205Z,1376.00
2018-07-22T16:58:39.176Z,1364.00
2018-07-22T17:00:32.184Z,1348.00
2018-07-22T17:01:32.142Z,1336.00
2018-07-22T17:03:25.350Z,1296.00
2018-07-22T17:04:25.300Z,1276.00
2018-07-22T17:06:18.307Z,1212.00
2018-07-22T17:07:18.358Z,1180.00
2018-07-22T17:09:11.280Z,1132.00
2018-07-22T17:10:11.226Z,1132.00
2018-07-22T17:12:04.093Z,1136.00
2018-07-22T17:13:04.025Z,1160.00
2018-07-22T17:14:57.027Z,1208.00
2018-07-22T17:15:57.003Z,1212.00
2018-07-22T17:17:49.841Z,1200.00
2018-07-22T17:18:49.903Z,1188.00
2018-07-22T17:20:43.098Z,1180.00
2018-07-22T17:21:42.961Z,1188.00
2018-07-22T17:23:35.946Z,1180.00
2018-07-22T17:24:35.919Z,1160.00
2018-07-22T17:26:28.933Z,1132.00
2018-07-22T17:27:28.886Z,1156.00
2018-07-22T17:29:21.943Z,1136.00
2018-07-22T17:30:21.978Z,1120.00
2018-07-22T17:32:14.953Z,1100.00
2018-07-22T17:33:14.978Z,1084.00
2018-07-22T17:35:08.065Z,1040.00
2018-07-22T17:36:08.023Z,1052.00
2018-07-22T17:38:01.035Z,1436.00
2018-07-22T17:39:01.014Z,1436.00
2018-07-22T17:40:54.008Z,1420.00